Akwesasne, New York
Current Conditions -  °F | °C
As of 2:53 AM on Tuesday 21 Oct 2014 (Local Time) from KMSS Reporting Station
Light Rain Light Rain  
Wind Chill:   Ceiling: 4000
Heat Index:   Visibility: 7mi
Dew Point:   Wind: 9mph
Humidity: 89%   Direction: 80°E
Pressure: 29.9"   Gusts: NA
Location:  44.9835°N, 74.6107°W
Report Text: KMSS 210653Z AUTO 08008KT 7SM -RA SCT026 BKN040 OVC055 07/05 A2990 RMK AO2 RAB20 SLP129 P0000 T00670050
Loading
Personal Weather Stations






























Interactive Weather Map
Tropical Storm Tracking
New forecast layout! Learn more

10-Day Weather Forecast

Advertisements
Track Severe Weather on mobile